Cedar Springs

*Note: All times are displayed in the local standard time of the station location.
**Rain - Equipment is designed to accurately record liquid precipitation; under conditions when precipitation is not in liquid form, the data displayed may not properly reflect rainfall values.

Date Max Temp
(°C)
Min Temp
(°C)
Avg Temp
(°C)
Rain (mm) Avg RH (%) Solar Rad (kJ/m2)
Wed, Apr 17, 2019 9.9 5.0 7.0 0.6 97.3 9822.8
Tue, Apr 16, 2019 8.5 1.9 5.5 0.2 90.9 3988.5
Mon, Apr 15, 2019 11.6 1.6 5.3 1.2 86.9 10576.5
Sun, Apr 14, 2019 6.7 2.0 3.8 8.8 91.9 552.7
Sat, Apr 13, 2019 10.7 5.3 7.6 0.0 84.6 11891.5
Fri, Apr 12, 2019 14.0 5.1 8.9 1.4 95.2 5921.5
Thu, Apr 11, 2019 5.6 1.8 3.8 0.6 90.4 7790.0
DateTime Avg Temp (°C) Rain (mm) RH (%) Solar Rad (kJ/m2)
Thu, Apr 18, 2019 08:00 9.2 0.0 98.2 0.0
Thu, Apr 18, 2019 07:00 8.9 0.0 98.3 0.0
Thu, Apr 18, 2019 06:00 9.0 0.0 98.6 0.0
Thu, Apr 18, 2019 05:00 8.9 0.0 98.9 0.0
Thu, Apr 18, 2019 04:00 8.7 0.0 98.9 0.0
Thu, Apr 18, 2019 03:00 8.7 0.0 99.0 0.0
Thu, Apr 18, 2019 02:00 8.4 0.0 99.0 0.0
Thu, Apr 18, 2019 01:00 6.9 0.2 98.7 0.0
Thu, Apr 18, 2019 00:00 6.6 0.4 97.6 0.0
Wed, Apr 17, 2019 23:00 7.1 0.2 96.3 0.0
Wed, Apr 17, 2019 22:00 7.2 0.0 95.4 0.0
Wed, Apr 17, 2019 21:00 7.4 0.0 94.3 0.9
Wed, Apr 17, 2019 20:00 7.6 0.0 93.2 53.1
Wed, Apr 17, 2019 19:00 8.1 0.0 92.7 414.2
Wed, Apr 17, 2019 18:00 8.6 0.0 92.5 593.9
Wed, Apr 17, 2019 17:00 9.7 0.0 93.0 916.7
Wed, Apr 17, 2019 16:00 9.5 0.0 94.6 950.8
Wed, Apr 17, 2019 15:00 8.7 0.0 96.1 1051.0
Wed, Apr 17, 2019 14:00 8.6 0.0 96.0 1341.2
Wed, Apr 17, 2019 13:00 8.6 0.0 97.1 1298.1
Wed, Apr 17, 2019 12:00 8.2 0.0 98.5 1375.9
Wed, Apr 17, 2019 11:00 7.1 0.0 99.7 1071.3
Wed, Apr 17, 2019 10:00 6.3 0.0 99.9 476.6
Wed, Apr 17, 2019 09:00 6.0 0.0 99.9 215.4
Wed, Apr 17, 2019 08:00 6.1 0.0 99.9 62.2
Wed, Apr 17, 2019 07:00 5.7 0.0 99.9 1.5
Wed, Apr 17, 2019 06:00 5.2 0.0 99.9 0.0
Wed, Apr 17, 2019 05:00 5.4 0.0 99.9 0.0
Wed, Apr 17, 2019 04:00 5.4 0.0 99.9 0.0
Wed, Apr 17, 2019 03:00 5.1 0.0 99.9 0.0
Wed, Apr 17, 2019 02:00 5.1 0.0 99.9 0.0
Wed, Apr 17, 2019 01:00 5.0 0.0 99.6 0.0
Wed, Apr 17, 2019 00:00 5.3 0.0 98.7 0.0
Tue, Apr 16, 2019 23:00 6.1 0.0 97.8 0.0
Tue, Apr 16, 2019 22:00 6.2 0.0 97.3 0.0
Tue, Apr 16, 2019 21:00 5.7 0.0 96.9 0.0
Tue, Apr 16, 2019 20:00 5.9 0.0 96.0 26.2
Tue, Apr 16, 2019 19:00 6.3 0.0 95.5 59.6
Tue, Apr 16, 2019 18:00 6.9 0.0 95.7 394.0
Tue, Apr 16, 2019 17:00 8.2 0.0 96.0 845.2
Tue, Apr 16, 2019 16:00 7.7 0.0 96.6 714.5
Tue, Apr 16, 2019 15:00 7.5 0.0 96.9 765.1
Tue, Apr 16, 2019 14:00 6.1 0.0 97.3 300.4
Tue, Apr 16, 2019 13:00 5.8 0.2 96.8 269.0
Tue, Apr 16, 2019 12:00 5.5 0.0 96.2 196.6
Tue, Apr 16, 2019 11:00 5.1 0.0 95.3 151.8
Tue, Apr 16, 2019 10:00 5.1 0.0 93.5 110.0
Tue, Apr 16, 2019 09:00 5.3 0.0 91.1 124.0


asterix Register now to access more data! asterix